createdAt,value
2023-02-22T00:01:08.220Z,8.80
2023-02-22T00:03:35.304Z,8.80
2023-02-22T00:06:05.318Z,8.70
2023-02-22T00:08:37.605Z,8.70
2023-02-22T00:11:11.291Z,8.70
2023-02-22T00:13:39.158Z,8.60
2023-02-22T00:16:07.044Z,8.60
2023-02-22T00:18:33.925Z,8.60
2023-02-22T00:21:01.759Z,8.60
2023-02-22T00:23:31.844Z,8.50
2023-02-22T00:26:00.500Z,8.50
2023-02-22T00:28:27.392Z,8.50
2023-02-22T00:30:54.949Z,8.40
2023-02-22T00:33:22.957Z,8.40
2023-02-22T00:35:49.935Z,8.40
2023-02-22T00:38:19.370Z,8.30
2023-02-22T00:40:46.471Z,8.30
2023-02-22T00:43:14.349Z,8.20
2023-02-22T00:45:41.954Z,8.20
2023-02-22T00:48:10.305Z,8.20
2023-02-22T00:50:37.733Z,8.20
2023-02-22T00:53:07.356Z,8.10
2023-02-22T00:55:37.817Z,8.10
2023-02-22T00:58:06.784Z,8.10
2023-02-22T01:00:39.785Z,8.10
2023-02-22T01:03:10.596Z,8.10
2023-02-22T01:05:38.489Z,8.10
2023-02-22T01:08:08.280Z,8.10
2023-02-22T01:10:37.477Z,8.10
2023-02-22T01:13:08.737Z,8.10
2023-02-22T01:15:39.801Z,8.10
2023-02-22T01:18:08.174Z,8.10
2023-02-22T01:20:35.593Z,8.00
2023-02-22T01:23:06.545Z,8.00
2023-02-22T01:25:35.017Z,8.00
2023-02-22T01:28:04.414Z,8.00
2023-02-22T01:30:35.359Z,8.00
2023-02-22T01:33:06.664Z,8.00
2023-02-22T01:35:37.252Z,7.90
2023-02-22T01:38:04.613Z,7.90
2023-02-22T01:40:42.642Z,7.90
2023-02-22T01:43:29.804Z,7.80
2023-02-22T01:46:04.204Z,7.80
2023-02-22T01:48:49.088Z,7.80
2023-02-22T01:51:49.120Z,7.70
2023-02-22T01:54:25.187Z,7.70
2023-02-22T01:57:12.207Z,7.60
2023-02-22T01:59:48.110Z,7.60
2023-02-22T02:02:16.480Z,7.50
2023-02-22T02:04:43.431Z,7.40
2023-02-22T02:07:16.460Z,7.40
2023-02-22T02:09:57.641Z,7.30
2023-02-22T02:12:26.111Z,7.30
2023-02-22T02:14:53.339Z,7.40
2023-02-22T02:17:23.615Z,7.30
2023-02-22T02:20:28.104Z,7.40
2023-02-22T02:23:13.400Z,7.30
2023-02-22T02:26:18.125Z,7.20
2023-02-22T02:29:36.328Z,7.20
2023-02-22T02:32:37.316Z,7.30
2023-02-22T02:35:11.776Z,7.30
2023-02-22T02:38:02.703Z,7.30
2023-02-22T02:40:36.312Z,7.30
2023-02-22T02:43:37.655Z,7.30
2023-02-22T02:46:24.519Z,7.30
2023-02-22T02:49:01.193Z,7.30
2023-02-22T02:51:41.645Z,7.30
2023-02-22T02:54:10.381Z,7.20
2023-02-22T02:56:37.800Z,7.20
2023-02-22T02:59:24.518Z,7.20
2023-02-22T03:02:39.577Z,7.10
2023-02-22T03:06:08.994Z,7.10
2023-02-22T03:08:57.234Z,7.10
2023-02-22T03:11:51.431Z,7.10
2023-02-22T03:14:37.897Z,7.00
2023-02-22T03:17:30.291Z,7.00
2023-02-22T03:20:31.893Z,7.00
2023-02-22T03:23:11.018Z,7.00
2023-02-22T03:25:47.337Z,7.00
2023-02-22T03:28:19.042Z,7.00
2023-02-22T03:30:58.463Z,7.00
2023-02-22T03:33:36.289Z,7.00
2023-02-22T03:36:21.809Z,7.00
2023-02-22T03:38:51.943Z,7.10
2023-02-22T03:41:25.278Z,7.10
2023-02-22T03:44:06.752Z,7.10
2023-02-22T03:46:38.140Z,7.10
2023-02-22T03:49:11.064Z,7.10
2023-02-22T03:51:39.618Z,7.10
2023-02-22T03:54:07.944Z,7.20
2023-02-22T03:56:59.743Z,7.10
2023-02-22T03:59:28.081Z,7.20
2023-02-22T04:01:56.906Z,7.20
2023-02-22T04:04:25.717Z,7.20
2023-02-22T04:06:53.267Z,7.20
2023-02-22T04:09:21.090Z,7.20
2023-02-22T04:11:48.422Z,7.10
2023-02-22T04:14:15.816Z,7.10
2023-02-22T04:16:42.814Z,7.10
2023-02-22T04:19:09.663Z,7.10
2023-02-22T04:21:36.514Z,7.10
2023-02-22T04:24:03.545Z,7.10
2023-02-22T04:26:30.352Z,7.00
2023-02-22T04:28:57.178Z,7.00
2023-02-22T04:31:24.181Z,7.00
2023-02-22T04:33:51.051Z,7.00
2023-02-22T04:36:18.121Z,7.00
2023-02-22T04:38:45.022Z,7.00
2023-02-22T04:41:11.882Z,7.00
2023-02-22T04:43:38.796Z,6.90
2023-02-22T04:46:05.928Z,6.90
2023-02-22T04:48:32.846Z,6.90
2023-02-22T04:50:59.709Z,6.80
2023-02-22T04:53:26.569Z,6.80
2023-02-22T04:55:53.448Z,6.80
2023-02-22T04:58:20.333Z,6.70
2023-02-22T05:00:47.213Z,6.70
2023-02-22T05:03:15.742Z,6.70
2023-02-22T05:05:43.668Z,6.70
2023-02-22T05:08:10.591Z,6.70
2023-02-22T05:10:37.462Z,6.60
2023-02-22T05:13:06.109Z,6.60
2023-02-22T05:15:33.057Z,6.60
2023-02-22T05:18:00.009Z,6.60
2023-02-22T05:20:33.916Z,6.60
2023-02-22T05:23:02.538Z,6.60
2023-02-22T05:25:29.763Z,6.60
2023-02-22T05:28:03.215Z,6.60
2023-02-22T05:30:35.108Z,6.60
2023-02-22T05:33:02.367Z,6.60
2023-02-22T05:35:29.744Z,6.60
2023-02-22T05:37:57.430Z,6.50
2023-02-22T05:40:26.805Z,6.60
2023-02-22T05:42:54.761Z,6.50
2023-02-22T05:45:24.805Z,6.50
2023-02-22T05:47:52.863Z,6.50
2023-02-22T05:50:20.829Z,6.50
2023-02-22T05:52:48.875Z,6.40
2023-02-22T05:55:18.770Z,6.40
2023-02-22T05:57:46.295Z,6.40
2023-02-22T06:00:26.949Z,6.40
2023-02-22T06:03:06.654Z,6.40
2023-02-22T06:05:33.923Z,6.40
2023-02-22T06:08:02.136Z,6.30
2023-02-22T06:10:30.160Z,6.30
2023-02-22T06:12:58.423Z,6.30
2023-02-22T06:15:27.274Z,6.30
2023-02-22T06:17:56.559Z,6.30
2023-02-22T06:20:26.770Z,6.30
2023-02-22T06:22:56.444Z,6.30
2023-02-22T06:25:27.195Z,6.30
2023-02-22T06:27:54.010Z,6.30
2023-02-22T06:30:24.338Z,6.30
2023-02-22T06:32:51.442Z,6.30
2023-02-22T06:35:19.119Z,6.30
2023-02-22T06:37:46.322Z,6.30
2023-02-22T06:40:14.656Z,6.30
2023-02-22T06:42:42.492Z,6.30
2023-02-22T06:45:10.630Z,6.30
2023-02-22T06:47:43.720Z,6.30
2023-02-22T06:50:31.498Z,6.40
2023-02-22T06:52:58.999Z,6.40
2023-02-22T06:55:29.675Z,6.40
2023-02-22T06:57:56.533Z,6.40
2023-02-22T07:00:25.682Z,6.60
2023-02-22T07:02:55.255Z,6.60
2023-02-22T07:05:24.772Z,6.70
2023-02-22T07:07:55.456Z,6.80
2023-02-22T07:10:30.231Z,6.80
2023-02-22T07:12:57.138Z,6.80
2023-02-22T07:15:27.915Z,6.90
2023-02-22T07:17:55.111Z,7.00
2023-02-22T07:20:24.520Z,7.10
2023-02-22T07:22:52.133Z,7.20
2023-02-22T07:25:20.231Z,7.30
2023-02-22T07:27:47.965Z,7.30
2023-02-22T07:30:28.040Z,7.40
2023-02-22T07:32:55.701Z,7.50
2023-02-22T07:35:32.159Z,7.60
2023-02-22T07:37:59.800Z,7.60
2023-02-22T07:40:28.213Z,7.70
2023-02-22T07:43:00.790Z,7.80
2023-02-22T07:45:36.018Z,7.80
2023-02-22T07:48:05.658Z,8.00
2023-02-22T07:50:34.975Z,8.20
2023-02-22T07:53:28.684Z,8.80
2023-02-22T07:56:01.382Z,9.40
2023-02-22T07:58:31.069Z,10.20
2023-02-22T08:00:58.926Z,10.80
2023-02-22T08:03:27.062Z,11.40
2023-02-22T08:05:57.658Z,12.00
2023-02-22T08:08:24.705Z,12.50
2023-02-22T08:10:52.708Z,13.10
2023-02-22T08:13:22.251Z,13.70
2023-02-22T08:15:53.813Z,14.20
2023-02-22T08:18:23.067Z,14.70
2023-02-22T08:20:52.120Z,15.20
2023-02-22T08:23:21.237Z,15.70
2023-02-22T08:25:48.166Z,16.20
2023-02-22T08:28:19.930Z,16.60
2023-02-22T08:30:47.018Z,17.00
2023-02-22T08:33:19.256Z,17.50
2023-02-22T08:35:49.675Z,17.90
2023-02-22T08:38:27.506Z,18.40
2023-02-22T08:40:54.660Z,18.80
2023-02-22T08:43:22.949Z,19.20
2023-02-22T08:45:51.985Z,19.60
2023-02-22T08:48:20.628Z,20.10
2023-02-22T08:50:47.684Z,20.40
2023-02-22T08:53:16.744Z,20.70
2023-02-22T08:55:45.007Z,20.80
2023-02-22T08:58:12.517Z,20.90
2023-02-22T09:00:41.517Z,21.00
2023-02-22T09:03:15.785Z,21.20
2023-02-22T09:05:44.394Z,21.30
2023-02-22T09:08:11.655Z,21.50
2023-02-22T09:10:38.673Z,21.70
2023-02-22T09:13:06.279Z,21.90
2023-02-22T09:15:35.919Z,22.20
2023-02-22T09:18:05.085Z,22.40
2023-02-22T09:20:31.951Z,22.50
2023-02-22T09:22:59.508Z,22.60
2023-02-22T09:25:27.222Z,22.70
2023-02-22T09:27:55.336Z,22.80
2023-02-22T09:30:32.151Z,23.10
2023-02-22T09:33:10.081Z,23.30
2023-02-22T09:35:42.363Z,23.60
2023-02-22T09:38:11.455Z,24.00
2023-02-22T09:40:45.472Z,24.40
2023-02-22T09:43:24.749Z,24.70
2023-02-22T09:46:22.297Z,25.00
2023-02-22T09:49:01.674Z,25.30
2023-02-22T09:51:42.336Z,25.60
2023-02-22T09:54:40.761Z,26.00
2023-02-22T09:57:16.304Z,26.50
2023-02-22T10:00:01.018Z,27.00
2023-02-22T10:02:36.868Z,27.30
2023-02-22T10:05:27.928Z,27.40
2023-02-22T10:08:05.864Z,27.60
2023-02-22T10:10:39.236Z,27.90
2023-02-22T10:13:25.744Z,28.10
2023-02-22T10:16:32.176Z,28.30
2023-02-22T10:19:16.803Z,28.60
2023-02-22T10:22:17.729Z,28.90
2023-02-22T10:25:17.919Z,29.00
2023-02-22T10:28:12.521Z,29.10
2023-02-22T10:30:59.212Z,29.10
2023-02-22T10:34:03.652Z,29.30
2023-02-22T10:36:30.746Z,29.40
2023-02-22T10:39:24.244Z,29.50
2023-02-22T10:41:57.244Z,29.40
2023-02-22T10:44:25.029Z,29.10
2023-02-22T10:46:53.418Z,28.70
2023-02-22T10:49:24.406Z,28.30
2023-02-22T10:52:01.931Z,27.80
2023-02-22T10:54:42.279Z,27.30
2023-02-22T10:57:12.187Z,27.00
2023-02-22T10:59:45.258Z,26.90
2023-02-22T11:02:31.302Z,26.80
2023-02-22T11:05:01.673Z,26.70
2023-02-22T11:07:34.165Z,26.50
2023-02-22T11:10:07.997Z,26.30
2023-02-22T11:12:39.633Z,26.10
2023-02-22T11:15:24.037Z,25.80
2023-02-22T11:17:55.272Z,25.50
2023-02-22T11:20:38.510Z,25.20
2023-02-22T11:23:08.229Z,24.60
2023-02-22T11:25:42.525Z,24.20
2023-02-22T11:28:20.876Z,23.70
2023-02-22T11:30:51.896Z,23.30
2023-02-22T11:33:23.944Z,22.80
2023-02-22T11:35:58.209Z,22.50
2023-02-22T11:38:32.727Z,22.30
2023-02-22T11:41:18.182Z,22.30
2023-02-22T11:43:51.607Z,22.30
2023-02-22T11:46:23.359Z,22.40
2023-02-22T11:48:58.977Z,22.40
2023-02-22T11:51:39.497Z,22.30
2023-02-22T11:54:09.359Z,22.20
2023-02-22T11:57:16.397Z,22.00
2023-02-22T12:00:15.505Z,21.80
2023-02-22T12:03:22.439Z,21.60
2023-02-22T12:06:32.981Z,21.40
2023-02-22T12:10:07.373Z,21.20
2023-02-22T12:13:10.012Z,21.00
2023-02-22T12:16:15.060Z,20.90
2023-02-22T12:18:53.505Z,20.80
2023-02-22T12:21:24.368Z,20.70
2023-02-22T12:24:04.219Z,20.60
2023-02-22T12:26:41.301Z,20.60
2023-02-22T12:29:41.577Z,20.50
2023-02-22T12:32:38.103Z,20.50
2023-02-22T12:35:36.373Z,20.40
2023-02-22T12:38:33.827Z,20.30
2023-02-22T12:41:38.351Z,20.20
2023-02-22T12:44:24.877Z,20.20
2023-02-22T12:46:56.965Z,20.10
2023-02-22T12:49:41.505Z,20.10
2023-02-22T12:52:44.201Z,20.10
2023-02-22T12:55:45.632Z,20.10
2023-02-22T13:06:41.515Z,20.10
2023-02-22T13:09:49.892Z,20.20
2023-02-22T13:12:35.184Z,20.20
2023-02-22T13:15:17.134Z,20.20
2023-02-22T13:18:28.617Z,20.20
2023-02-22T13:21:14.505Z,20.30
2023-02-22T13:24:16.274Z,20.40
2023-02-22T13:27:25.970Z,20.40
2023-02-22T13:29:59.799Z,20.50
2023-02-22T13:32:51.414Z,20.50
2023-02-22T13:35:44.412Z,20.60
2023-02-22T13:38:43.499Z,20.70
2023-02-22T13:41:20.398Z,20.70
2023-02-22T13:44:16.986Z,20.80
2023-02-22T13:47:36.837Z,20.80
2023-02-22T13:50:34.487Z,20.90
2023-02-22T13:53:10.944Z,20.90
2023-02-22T13:55:41.471Z,21.00
2023-02-22T13:58:12.673Z,21.00
2023-02-22T14:01:00.075Z,21.10
2023-02-22T14:03:40.432Z,21.20
2023-02-22T14:06:38.916Z,21.30
2023-02-22T14:09:19.979Z,21.40
2023-02-22T14:11:54.076Z,21.40
2023-02-22T14:14:21.448Z,21.40
2023-02-22T14:17:26.091Z,21.30
2023-02-22T14:20:21.388Z,21.30
2023-02-22T14:22:53.058Z,21.30
2023-02-22T14:25:37.298Z,21.30
2023-02-22T14:28:59.533Z,21.30
2023-02-22T14:31:52.783Z,21.30
2023-02-22T14:34:51.327Z,21.40
2023-02-22T14:37:25.855Z,21.40
2023-02-22T14:39:57.342Z,21.30
2023-02-22T14:42:37.732Z,21.40
2023-02-22T14:45:29.838Z,21.40
2023-02-22T14:48:40.075Z,21.50
2023-02-22T14:51:40.571Z,21.60
2023-02-22T14:54:31.832Z,21.70
2023-02-22T14:57:24.455Z,21.70
2023-02-22T15:00:33.284Z,21.70
2023-02-22T15:03:01.381Z,21.60
2023-02-22T15:05:38.305Z,21.60
2023-02-22T15:08:08.979Z,21.50
2023-02-22T15:10:51.585Z,21.40
2023-02-22T15:13:28.258Z,21.30
2023-02-22T15:16:07.958Z,21.30
2023-02-22T15:18:40.653Z,21.20
2023-02-22T15:21:16.385Z,21.10
2023-02-22T15:23:56.913Z,21.10
2023-02-22T15:26:26.823Z,21.00
2023-02-22T15:28:59.768Z,20.90
2023-02-22T15:31:35.411Z,20.80
2023-02-22T15:34:27.321Z,20.70
2023-02-22T15:36:57.622Z,20.60
2023-02-22T15:39:35.117Z,20.40
2023-02-22T15:42:22.974Z,20.30
2023-02-22T15:44:54.677Z,20.10
2023-02-22T15:47:29.428Z,20.10
2023-02-22T15:50:25.563Z,20.00
2023-02-22T15:53:07.780Z,19.80
2023-02-22T15:55:43.660Z,19.70
2023-02-22T15:58:15.032Z,19.60
2023-02-22T16:01:00.011Z,19.50
2023-02-22T16:03:33.141Z,19.40
2023-02-22T16:06:00.580Z,19.30
2023-02-22T16:08:54.131Z,19.20
2023-02-22T16:11:30.150Z,19.10
2023-02-22T16:14:06.649Z,19.00
2023-02-22T16:16:36.466Z,18.90
2023-02-22T16:19:42.357Z,18.90
2023-02-22T16:22:35.391Z,18.80
2023-02-22T16:25:24.831Z,18.60
2023-02-22T16:28:06.163Z,18.60
2023-02-22T16:30:39.735Z,18.50
2023-02-22T16:33:16.572Z,18.30
2023-02-22T16:35:51.980Z,18.20
2023-02-22T16:38:21.222Z,18.10
2023-02-22T16:40:55.588Z,18.00
2023-02-22T16:43:34.114Z,17.90
2023-02-22T16:46:03.223Z,17.70
2023-02-22T16:48:33.505Z,17.60
2023-02-22T16:51:08.903Z,17.50
2023-02-22T16:53:37.638Z,17.40
2023-02-22T16:56:09.650Z,17.20
2023-02-22T16:58:40.910Z,17.10
2023-02-22T17:01:08.381Z,17.00
2023-02-22T17:03:36.935Z,16.90
2023-02-22T17:06:04.132Z,16.70
2023-02-22T17:08:32.350Z,16.60
2023-02-22T17:11:00.798Z,16.50
2023-02-22T17:13:29.346Z,16.40
2023-02-22T17:15:57.685Z,16.30
2023-02-22T17:18:28.903Z,16.10
2023-02-22T17:20:56.625Z,16.00
2023-02-22T17:23:24.365Z,15.90
2023-02-22T17:25:53.492Z,15.80
2023-02-22T17:28:23.601Z,15.70
2023-02-22T17:30:52.882Z,15.60
2023-02-22T17:33:26.944Z,15.50
2023-02-22T17:35:57.794Z,15.40
2023-02-22T17:38:26.922Z,15.30
2023-02-22T17:40:54.824Z,15.30
2023-02-22T17:43:22.101Z,15.20
2023-02-22T17:45:49.165Z,15.10
2023-02-22T17:48:18.434Z,15.00
2023-02-22T17:50:47.869Z,14.90
2023-02-22T17:53:15.651Z,14.90
2023-02-22T17:55:43.046Z,14.80
2023-02-22T17:58:14.848Z,14.80
2023-02-22T18:00:50.191Z,14.70
2023-02-22T18:03:25.668Z,14.60
2023-02-22T18:05:58.251Z,14.60
2023-02-22T18:08:28.608Z,14.50
2023-02-22T18:10:58.999Z,14.40
2023-02-22T18:13:27.621Z,14.40
2023-02-22T18:15:59.921Z,14.40
2023-02-22T18:18:27.711Z,14.30
2023-02-22T18:21:00.145Z,14.30
2023-02-22T18:23:30.666Z,14.20
2023-02-22T18:26:14.873Z,14.20
2023-02-22T18:28:41.763Z,14.10
2023-02-22T18:31:14.401Z,14.00
2023-02-22T18:33:47.721Z,14.00
2023-02-22T18:36:16.388Z,13.90
2023-02-22T18:38:44.569Z,13.80
2023-02-22T18:41:18.315Z,13.80
2023-02-22T18:43:50.862Z,13.70
2023-02-22T18:46:21.168Z,13.60
2023-02-22T18:48:52.999Z,13.60
2023-02-22T18:51:20.077Z,13.50
2023-02-22T18:53:48.009Z,13.50
2023-02-22T18:56:21.699Z,13.40
2023-02-22T18:58:54.041Z,13.30
2023-02-22T19:01:22.091Z,13.20
2023-02-22T19:03:49.340Z,13.20
2023-02-22T19:06:19.232Z,13.10
2023-02-22T19:08:47.101Z,13.00
2023-02-22T19:11:24.095Z,13.00
2023-02-22T19:13:56.265Z,12.90
2023-02-22T19:16:25.252Z,12.90
2023-02-22T19:18:57.094Z,12.80
2023-02-22T19:21:25.865Z,12.80
2023-02-22T19:23:52.762Z,12.70
2023-02-22T19:26:24.104Z,12.60
2023-02-22T19:28:54.623Z,12.60
2023-02-22T19:31:33.647Z,12.60
2023-02-22T19:34:10.421Z,12.50
2023-02-22T19:36:47.332Z,12.40
2023-02-22T19:39:16.545Z,12.40
2023-02-22T19:41:43.621Z,12.30
2023-02-22T19:44:10.935Z,12.30
2023-02-22T19:46:38.170Z,12.30
2023-02-22T19:49:06.787Z,12.30
2023-02-22T19:51:34.383Z,12.30
2023-02-22T19:54:05.909Z,12.40
2023-02-22T19:56:35.239Z,12.40
2023-02-22T19:59:13.324Z,12.40
2023-02-22T20:01:44.425Z,12.40
2023-02-22T20:04:18.682Z,12.50
2023-02-22T20:06:46.885Z,12.50
2023-02-22T20:09:18.711Z,12.50
2023-02-22T20:11:49.434Z,12.50
2023-02-22T20:14:23.475Z,12.50
2023-02-22T20:16:52.971Z,12.60
2023-02-22T20:19:22.444Z,12.50
2023-02-22T20:21:52.256Z,12.50
2023-02-22T20:24:19.447Z,12.50
2023-02-22T20:26:47.585Z,12.50
2023-02-22T20:29:15.762Z,12.50
2023-02-22T20:31:44.535Z,12.50
2023-02-22T20:34:11.822Z,12.50
2023-02-22T20:36:41.451Z,12.50
2023-02-22T20:39:13.443Z,12.50
2023-02-22T20:41:46.407Z,12.40
2023-02-22T20:44:17.278Z,12.50
2023-02-22T20:46:45.120Z,12.50
2023-02-22T20:49:17.159Z,12.50
2023-02-22T20:51:46.236Z,12.40
2023-02-22T20:54:13.585Z,12.40
2023-02-22T20:56:43.244Z,12.40
2023-02-22T20:59:17.120Z,12.40
2023-02-22T21:01:44.495Z,12.30
2023-02-22T21:04:13.454Z,12.30
2023-02-22T21:06:41.412Z,12.30
2023-02-22T21:09:15.048Z,12.30
2023-02-22T21:11:42.820Z,12.30
2023-02-22T21:14:17.048Z,12.30
2023-02-22T21:16:46.811Z,12.20
2023-02-22T21:19:27.386Z,12.20
2023-02-22T21:22:01.341Z,12.20
2023-02-22T21:24:29.518Z,12.20
2023-02-22T21:27:00.130Z,12.10
2023-02-22T21:29:28.730Z,12.10
2023-02-22T21:31:56.715Z,12.10
2023-02-22T21:34:25.718Z,12.10
2023-02-22T21:36:53.309Z,12.10
2023-02-22T21:39:20.480Z,12.10
2023-02-22T21:41:50.901Z,12.10
2023-02-22T21:44:19.208Z,12.00
2023-02-22T21:46:50.654Z,12.00
2023-02-22T21:49:22.484Z,12.00
2023-02-22T21:51:51.598Z,12.00
2023-02-22T21:54:19.217Z,12.00
2023-02-22T21:56:46.311Z,12.10
2023-02-22T22:04:42.948Z,12.00
2023-02-22T22:07:09.857Z,12.00
2023-02-22T22:09:41.187Z,12.00
2023-02-22T22:12:10.167Z,12.00
2023-02-22T22:14:38.088Z,12.00
2023-02-22T22:17:08.796Z,12.00
2023-02-22T22:19:41.697Z,12.00
2023-02-22T22:22:09.024Z,12.00
2023-02-22T22:24:36.960Z,12.00
2023-02-22T22:27:06.420Z,12.00
2023-02-22T22:29:34.433Z,12.00
2023-02-22T22:32:02.657Z,12.00
2023-02-22T22:34:31.746Z,12.00
2023-02-22T22:36:58.757Z,12.00
2023-02-22T22:39:26.907Z,12.00
2023-02-22T22:41:54.344Z,12.00
2023-02-22T22:44:22.291Z,12.00
2023-02-22T22:46:53.505Z,11.90
2023-02-22T22:49:20.773Z,11.90
2023-02-22T22:51:48.198Z,12.00
2023-02-22T22:54:15.137Z,12.00
2023-02-22T22:56:41.985Z,12.00
2023-02-22T22:59:10.739Z,12.00
2023-02-22T23:01:44.510Z,12.00
2023-02-22T23:04:16.954Z,12.00
2023-02-22T23:06:52.447Z,12.00
2023-02-22T23:09:22.330Z,12.00
2023-02-22T23:11:56.708Z,12.00
2023-02-22T23:14:32.654Z,12.00
2023-02-22T23:17:03.906Z,12.00
2023-02-22T23:19:33.630Z,12.10
2023-02-22T23:22:05.116Z,12.00
2023-02-22T23:24:36.163Z,12.00
2023-02-22T23:27:10.713Z,12.00
2023-02-22T23:29:41.064Z,11.90
2023-02-22T23:32:09.447Z,11.90
2023-02-22T23:34:41.011Z,11.90
2023-02-22T23:37:10.334Z,11.90
2023-02-22T23:39:38.461Z,11.90
2023-02-22T23:42:08.665Z,11.80
2023-02-22T23:44:36.124Z,11.80
2023-02-22T23:47:03.850Z,11.80
2023-02-22T23:49:35.947Z,11.80
2023-02-22T23:52:04.480Z,11.80
2023-02-22T23:54:36.442Z,11.70
2023-02-22T23:57:05.488Z,11.70
2023-02-22T23:59:33.710Z,11.70
